Terminal Aerodrome Forecast
Issued by NWS Jackson, MS

Home | Current Version | Previous Version | Text Only | Print | Product List | Glossary On
Versions: 1 2 3 4 5 6 7 8 9 10 11 12 13 14 15 16 17 18 19 20
000
FTUS44 KMEG 221700
TAFTUP
TAF
KTUP 221740Z 2218/2318 15008KT P6SM VCSH SCT025 BKN035 OVC050
     FM230100 16004KT P6SM SKC
     FM230600 00000KT 3SM BR SKC
     FM231300 VRB03KT P6SM SKC=

USA.gov is the U.S. government's official web portal to all federal, state and local government web resources and services.